Super Jet — IINO — position and weather

sailwx.info

Track history (hours):
 
Tides and Currents Weather Stations Pressure Air Temp Water Temp Dewpoint Dewpoint Depression Visibility Wind Speed Wind Dir Waves Ship Positions

Super Jet

Last reported at 2016-May-26 10:33 UTC. Time now 2016-May-26 10:43 UTC.
Position N 40°33' E 014°14'.

Length 30 m; draft 1.4 m.

Type: High speed craft. MMSI: 247540000.

Date/timePositionNaut miles runAvg speedWind from/ knotsBaromVisibWave heightAir tempDewpointWater temp
2016-May-26 10:33N 40°33' E 014°14'0 0.1
2016-May-26 09:33N 40°33' E 014°14'1716.1
2016-May-26 08:31N 40°50' E 014°15'1717.7
2016-May-26 07:34N 40°33' E 014°14'10 5.0
2016-May-26 05:33N 40°42' E 014°21'4 4.3
2016-May-26 04:33N 40°38' E 014°23'0 0.0
2016-May-26 03:30N 40°38' E 014°23'0 0.0
2016-May-26 02:33N 40°38' E 014°23'0 0.0
2016-May-26 01:30N 40°38' E 014°23'0 0.0
2016-May-26 00:30N 40°38' E 014°23'0 0.0
2016-May-25 23:33N 40°38' E 014°23'0 0.0
2016-May-25 22:33N 40°38' E 014°23'0 0.0
2016-May-25 21:30N 40°38' E 014°23'0 0.0
2016-May-25 20:32N 40°38' E 014°23'0 0.0
2016-May-25 19:26N 40°38' E 014°23'0 0.0
2016-May-25 18:09N 40°38' E 014°23'0 0.0
2016-May-25 17:33N 40°38' E 014°23'1211.5
2016-May-25 16:33N 40°49' E 014°17'6 5.8
2016-May-25 15:33N 40°43' E 014°17'10 9.6
2016-May-25 14:33N 40°33' E 014°14'17 8.2
2016-May-25 12:30N 40°50' E 014°15'1717.8
2016-May-25 11:33N 40°33' E 014°14'1 0.9
2016-May-25 10:33N 40°34' E 014°14'1 0.9
2016-May-25 09:33N 40°33' E 014°14'1714.9
2016-May-25 08:26N 40°50' E 014°15'1719.1
2016-May-25 07:33N 40°33' E 014°14'8 0.9
2016-May-24 22:33N 40°38' E 014°23'0 0.0
2016-May-24 21:33N 40°38' E 014°23'0 0.0
2016-May-24 20:33N 40°38' E 014°23'0 0.0
2016-May-24 19:33N 40°38' E 014°23'0 0.0
2016-May-24 18:33N 40°38' E 014°23'0 0.0
2016-May-24 17:33N 40°38' E 014°23'0 0.0
2016-May-24 16:33N 40°38' E 014°23'0 0.0
2016-May-24 15:33N 40°38' E 014°23'0 0.0
2016-May-24 14:32N 40°38' E 014°23'0 0.0
2016-May-24 13:32N 40°38' E 014°23'0 0.0
2016-May-24 12:33N 40°38' E 014°23'0 0.0
2016-May-24 11:34N 40°38' E 014°23'0 0.0
2016-May-24 10:33N 40°38' E 014°23'0 0.0
2016-May-24 09:33N 40°38' E 014°23'0 0.0
2016-May-24 08:33N 40°38' E 014°23'0 0.0
2016-May-24 07:33N 40°38' E 014°23'0 0.0
2016-May-24 06:33N 40°38' E 014°23'0 0.0
2016-May-24 05:32N 40°38' E 014°23'0 0.0
2016-May-24 04:32N 40°38' E 014°23'0 0.0
2016-May-24 03:33N 40°38' E 014°23'0 0.0
2016-May-24 02:33N 40°38' E 014°23'0 0.0
2016-May-24 01:33N 40°38' E 014°23'0 0.0
2016-May-24 00:33N 40°38' E 014°23'0 0.0
2016-May-23 23:33N 40°38' E 014°23'0 0.0
2016-May-23 22:33N 40°38' E 014°23'0 0.0
2016-May-23 21:32N 40°38' E 014°23'0 0.0
2016-May-23 20:33N 40°38' E 014°23'0 0.0
2016-May-23 19:32N 40°38' E 014°23'0 0.0
2016-May-23 18:33N 40°38' E 014°23'0 0.0
2016-May-23 17:33N 40°38' E 014°23'1313.1
2016-May-23 16:33N 40°50' E 014°16'1 0.7
2016-May-23 15:32N 40°50' E 014°15'1616.8
2016-May-23 14:33N 40°34' E 014°15'1 1.1
2016-May-23 13:34N 40°35' E 014°15'1 1.0
2016-May-23 12:33N 40°34' E 014°14'3 3.5
2016-May-23 11:34N 40°37' E 014°18'1413.7
2016-May-23 10:33N 40°50' E 014°15'1716.8
2016-May-23 09:33N 40°33' E 014°14'1716.6
2016-May-23 08:33N 40°50' E 014°15'1717.0
2016-May-23 07:33N 40°33' E 014°14'10 4.9
2016-May-23 05:33N 40°42' E 014°21'4 4.0
2016-May-23 04:33N 40°38' E 014°23'0 0.0
2016-May-23 03:33N 40°38' E 014°23'0 0.0
2016-May-23 02:33N 40°38' E 014°23'0 0.0
2016-May-23 01:33N 40°38' E 014°23'0 0.0
2016-May-23 00:33N 40°38' E 014°23'0 0.0
2016-May-22 23:33N 40°38' E 014°23'0 0.0
2016-May-22 22:33N 40°38' E 014°23'0 0.0
2016-May-22 21:33N 40°38' E 014°23'0 0.0
2016-May-22 20:33N 40°38' E 014°23'0 0.0
2016-May-22 19:33N 40°38' E 014°23'0 0.0
2016-May-22 18:33N 40°38' E 014°23'0 0.0
2016-May-22 17:33N 40°38' E 014°23'1312.8
2016-May-22 16:33N 40°50' E 014°17'6 6.3
2016-May-22 15:33N 40°44' E 014°17'1010.2
2016-May-22 14:33N 40°33' E 014°14'1 0.7
2016-May-22 13:33N 40°34' E 014°14'0 0.2
2016-May-22 12:33N 40°34' E 014°14'0 0.4
2016-May-22 11:33N 40°34' E 014°14'1 1.1
2016-May-22 10:33N 40°33' E 014°15'1716.6
2016-May-22 09:33N 40°50' E 014°15'0 0.0
2016-May-22 08:23N 40°50' E 014°15'10 3.5
2016-May-22 05:33N 40°41' E 014°21'4 3.8
2016-May-22 04:33N 40°38' E 014°23'0 0.0
2016-May-22 03:33N 40°38' E 014°23'0 0.0
2016-May-22 02:33N 40°38' E 014°23'0 0.0
2016-May-22 01:33N 40°38' E 014°23'0 0.0
2016-May-22 00:33N 40°38' E 014°23'0 0.0
2016-May-21 23:33N 40°38' E 014°23'0 0.0
2016-May-21 22:33N 40°38' E 014°23'0 0.0
2016-May-21 21:32N 40°38' E 014°23'0 0.0
2016-May-21 20:32N 40°38' E 014°23'0 0.0
2016-May-21 19:33N 40°38' E 014°23'0 0.0
2016-May-21 18:33N 40°38' E 014°23'0 0.0
2016-May-21 17:33N 40°38' E 014°23'1313.0
2016-May-21 16:33N 40°50' E 014°16'7 7.0
2016-May-21 15:33N 40°43' E 014°17'8 8.5
2016-May-21 14:34N 40°34' E 014°16'2 1.7
2016-May-21 13:33N 40°33' E 014°14'2 1.6
2016-May-21 12:33N 40°32' E 014°15'1 0.8
2016-May-21 11:32N 40°32' E 014°15'2 1.9
2016-May-21 10:33N 40°33' E 014°14'17 7.7
2016-May-21 08:23N 40°50' E 014°16'1720.4
2016-May-21 07:33N 40°33' E 014°14'10 5.0
2016-May-21 05:33N 40°42' E 014°20'5 5.0
2016-May-21 04:33N 40°38' E 014°23'0 0.0
2016-May-21 03:33N 40°38' E 014°23'0 0.0
2016-May-21 02:33N 40°38' E 014°23'0 0.0
2016-May-21 01:33N 40°38' E 014°23'0 0.0
2016-May-21 00:33N 40°38' E 014°23'0 0.0
2016-May-20 23:33N 40°38' E 014°23'0 0.0
2016-May-20 22:33N 40°38' E 014°23'0 0.0
2016-May-20 21:33N 40°38' E 014°23'0 0.0
2016-May-20 20:33N 40°38' E 014°23'0 0.0
2016-May-20 19:33N 40°38' E 014°23'0 0.0
2016-May-20 18:33N 40°38' E 014°23'0 0.0
2016-May-20 17:33N 40°38' E 014°23'1313.1
2016-May-20 16:33N 40°50' E 014°16'1111.2
2016-May-20 15:33N 40°39' E 014°19'7 6.6
2016-May-20 14:33N 40°33' E 014°14'17 8.4
2016-May-20 12:33N 40°50' E 014°16'1716.6
2016-May-20 11:33N 40°33' E 014°14'3 2.9
2016-May-20 10:33N 40°36' E 014°16'1414.5
2016-May-20 09:33N 40°50' E 014°15'0 0.0
2016-May-20 08:33N 40°50' E 014°15'1716.8
2016-May-20 07:33N 40°33' E 014°14'10 5.1
2016-May-20 05:33N 40°42' E 014°22'4 0.1
2016-May-18 18:32N 40°38' E 014°23'0 0.0
2016-May-18 17:33N 40°38' E 014°23'1312.9
2016-May-18 16:33N 40°50' E 014°17'7 7.4
2016-May-18 15:33N 40°42' E 014°17'9 9.2
2016-May-18 14:33N 40°33' E 014°14'17 8.1
2016-May-18 12:28N 40°50' E 014°16'1718.4
2016-May-18 11:33N 40°33' E 014°14'0 0.0
2016-May-18 10:33N 40°33' E 014°14'17 8.1
2016-May-18 08:29N 40°50' E 014°16'1718.0
2016-May-18 07:33N 40°33' E 014°14'1711.8
2016-May-18 06:08N 40°50' E 014°15'915.9
2016-May-18 05:33N 40°42' E 014°21'4 4.4
2016-May-18 04:33N 40°38' E 014°23'0 0.0
2016-May-18 03:33N 40°38' E 014°23'0 0.0
2016-May-18 02:33N 40°38' E 014°23'0 0.0
2016-May-18 01:33N 40°38' E 014°23'0 0.0
2016-May-18 00:33N 40°38' E 014°23'0 0.0
2016-May-17 23:33N 40°38' E 014°23'0 0.0
2016-May-17 22:33N 40°38' E 014°23'0 0.0
2016-May-17 21:32N 40°38' E 014°23'0 0.0
2016-May-17 20:33N 40°38' E 014°23'0 0.0
2016-May-17 19:33N 40°38' E 014°23'0 0.0
2016-May-17 18:31N 40°38' E 014°23'0 0.0
2016-May-17 17:33N 40°38' E 014°23'1312.8
2016-May-17 16:33N 40°50' E 014°17'1 1.1
2016-May-17 15:32N 40°50' E 014°15'1717.2
2016-May-17 14:33N 40°33' E 014°14'0 0.0
2016-May-17 13:33N 40°33' E 014°14'0 0.0
2016-May-17 12:33N 40°33' E 014°14'4 3.7
2016-May-17 11:33N 40°36' E 014°17'1411.3
2016-May-17 10:21N 40°50' E 014°16'1721.1
2016-May-17 09:33N 40°33' E 014°14'0 0.0
2016-May-17 08:33N 40°33' E 014°14'0 0.0
2016-May-17 07:33N 40°33' E 014°14'  
Track history (hours):
 
Tides and Currents Weather Stations Pressure Air Temp Water Temp Dewpoint Dewpoint Depression Visibility Wind Speed Wind Dir Waves Ship Positions

Super Jet

Last reported at 2016-May-26 10:33 UTC. Time now 2016-May-26 10:43 UTC.
Position N 40°33' E 014°14'.

Length 30 m; draft 1.4 m.

Type: High speed craft. MMSI: 247540000.

Date/timePositionNaut miles runAvg speedWind from/ knotsBaromVisibWave heightAir tempDewpointWater temp
2016-May-26 10:33N 40°33' E 014°14'0 0.1
2016-May-26 09:33N 40°33' E 014°14'1716.1
2016-May-26 08:31N 40°50' E 014°15'1717.7
2016-May-26 07:34N 40°33' E 014°14'10 5.0
2016-May-26 05:33N 40°42' E 014°21'4 4.3
2016-May-26 04:33N 40°38' E 014°23'0 0.0
2016-May-26 03:30N 40°38' E 014°23'0 0.0
2016-May-26 02:33N 40°38' E 014°23'0 0.0
2016-May-26 01:30N 40°38' E 014°23'0 0.0
2016-May-26 00:30N 40°38' E 014°23'0 0.0
2016-May-25 23:33N 40°38' E 014°23'0 0.0
2016-May-25 22:33N 40°38' E 014°23'0 0.0
2016-May-25 21:30N 40°38' E 014°23'0 0.0
2016-May-25 20:32N 40°38' E 014°23'0 0.0
2016-May-25 19:26N 40°38' E 014°23'0 0.0
2016-May-25 18:09N 40°38' E 014°23'0 0.0
2016-May-25 17:33N 40°38' E 014°23'1211.5
2016-May-25 16:33N 40°49' E 014°17'6 5.8
2016-May-25 15:33N 40°43' E 014°17'10 9.6
2016-May-25 14:33N 40°33' E 014°14'17 8.2
2016-May-25 12:30N 40°50' E 014°15'1717.8
2016-May-25 11:33N 40°33' E 014°14'1 0.9
2016-May-25 10:33N 40°34' E 014°14'1 0.9
2016-May-25 09:33N 40°33' E 014°14'1714.9
2016-May-25 08:26N 40°50' E 014°15'1719.1
2016-May-25 07:33N 40°33' E 014°14'8 0.9
2016-May-24 22:33N 40°38' E 014°23'0 0.0
2016-May-24 21:33N 40°38' E 014°23'0 0.0
2016-May-24 20:33N 40°38' E 014°23'0 0.0
2016-May-24 19:33N 40°38' E 014°23'0 0.0
2016-May-24 18:33N 40°38' E 014°23'0 0.0
2016-May-24 17:33N 40°38' E 014°23'0 0.0
2016-May-24 16:33N 40°38' E 014°23'0 0.0
2016-May-24 15:33N 40°38' E 014°23'0 0.0
2016-May-24 14:32N 40°38' E 014°23'0 0.0
2016-May-24 13:32N 40°38' E 014°23'0 0.0
2016-May-24 12:33N 40°38' E 014°23'0 0.0
2016-May-24 11:34N 40°38' E 014°23'0 0.0
2016-May-24 10:33N 40°38' E 014°23'0 0.0
2016-May-24 09:33N 40°38' E 014°23'0 0.0
2016-May-24 08:33N 40°38' E 014°23'0 0.0
2016-May-24 07:33N 40°38' E 014°23'0 0.0
2016-May-24 06:33N 40°38' E 014°23'0 0.0
2016-May-24 05:32N 40°38' E 014°23'0 0.0
2016-May-24 04:32N 40°38' E 014°23'0 0.0
2016-May-24 03:33N 40°38' E 014°23'0 0.0
2016-May-24 02:33N 40°38' E 014°23'0 0.0
2016-May-24 01:33N 40°38' E 014°23'0 0.0
2016-May-24 00:33N 40°38' E 014°23'0 0.0
2016-May-23 23:33N 40°38' E 014°23'0 0.0
2016-May-23 22:33N 40°38' E 014°23'0 0.0
2016-May-23 21:32N 40°38' E 014°23'0 0.0
2016-May-23 20:33N 40°38' E 014°23'0 0.0
2016-May-23 19:32N 40°38' E 014°23'0 0.0
2016-May-23 18:33N 40°38' E 014°23'0 0.0
2016-May-23 17:33N 40°38' E 014°23'1313.1
2016-May-23 16:33N 40°50' E 014°16'1 0.7
2016-May-23 15:32N 40°50' E 014°15'1616.8
2016-May-23 14:33N 40°34' E 014°15'1 1.1
2016-May-23 13:34N 40°35' E 014°15'1 1.0
2016-May-23 12:33N 40°34' E 014°14'3 3.5
2016-May-23 11:34N 40°37' E 014°18'1413.7
2016-May-23 10:33N 40°50' E 014°15'1716.8
2016-May-23 09:33N 40°33' E 014°14'1716.6
2016-May-23 08:33N 40°50' E 014°15'1717.0
2016-May-23 07:33N 40°33' E 014°14'10 4.9
2016-May-23 05:33N 40°42' E 014°21'4 4.0
2016-May-23 04:33N 40°38' E 014°23'0 0.0
2016-May-23 03:33N 40°38' E 014°23'0 0.0
2016-May-23 02:33N 40°38' E 014°23'0 0.0
2016-May-23 01:33N 40°38' E 014°23'0 0.0
2016-May-23 00:33N 40°38' E 014°23'0 0.0
2016-May-22 23:33N 40°38' E 014°23'0 0.0
2016-May-22 22:33N 40°38' E 014°23'0 0.0
2016-May-22 21:33N 40°38' E 014°23'0 0.0
2016-May-22 20:33N 40°38' E 014°23'0 0.0
2016-May-22 19:33N 40°38' E 014°23'0 0.0
2016-May-22 18:33N 40°38' E 014°23'0 0.0
2016-May-22 17:33N 40°38' E 014°23'1312.8
2016-May-22 16:33N 40°50' E 014°17'6 6.3
2016-May-22 15:33N 40°44' E 014°17'1010.2
2016-May-22 14:33N 40°33' E 014°14'1 0.7
2016-May-22 13:33N 40°34' E 014°14'0 0.2
2016-May-22 12:33N 40°34' E 014°14'0 0.4
2016-May-22 11:33N 40°34' E 014°14'1 1.1
2016-May-22 10:33N 40°33' E 014°15'1716.6
2016-May-22 09:33N 40°50' E 014°15'0 0.0
2016-May-22 08:23N 40°50' E 014°15'10 3.5
2016-May-22 05:33N 40°41' E 014°21'4 3.8
2016-May-22 04:33N 40°38' E 014°23'0 0.0
2016-May-22 03:33N 40°38' E 014°23'0 0.0
2016-May-22 02:33N 40°38' E 014°23'0 0.0
2016-May-22 01:33N 40°38' E 014°23'0 0.0
2016-May-22 00:33N 40°38' E 014°23'0 0.0
2016-May-21 23:33N 40°38' E 014°23'0 0.0
2016-May-21 22:33N 40°38' E 014°23'0 0.0
2016-May-21 21:32N 40°38' E 014°23'0 0.0
2016-May-21 20:32N 40°38' E 014°23'0 0.0
2016-May-21 19:33N 40°38' E 014°23'0 0.0
2016-May-21 18:33N 40°38' E 014°23'0 0.0
2016-May-21 17:33N 40°38' E 014°23'1313.0
2016-May-21 16:33N 40°50' E 014°16'7 7.0
2016-May-21 15:33N 40°43' E 014°17'8 8.5
2016-May-21 14:34N 40°34' E 014°16'2 1.7
2016-May-21 13:33N 40°33' E 014°14'2 1.6
2016-May-21 12:33N 40°32' E 014°15'1 0.8
2016-May-21 11:32N 40°32' E 014°15'2 1.9
2016-May-21 10:33N 40°33' E 014°14'17 7.7
2016-May-21 08:23N 40°50' E 014°16'1720.4
2016-May-21 07:33N 40°33' E 014°14'10 5.0
2016-May-21 05:33N 40°42' E 014°20'5 5.0
2016-May-21 04:33N 40°38' E 014°23'0 0.0
2016-May-21 03:33N 40°38' E 014°23'0 0.0
2016-May-21 02:33N 40°38' E 014°23'0 0.0
2016-May-21 01:33N 40°38' E 014°23'0 0.0
2016-May-21 00:33N 40°38' E 014°23'0 0.0
2016-May-20 23:33N 40°38' E 014°23'0 0.0
2016-May-20 22:33N 40°38' E 014°23'0 0.0
2016-May-20 21:33N 40°38' E 014°23'0 0.0
2016-May-20 20:33N 40°38' E 014°23'0 0.0
2016-May-20 19:33N 40°38' E 014°23'0 0.0
2016-May-20 18:33N 40°38' E 014°23'0 0.0
2016-May-20 17:33N 40°38' E 014°23'1313.1
2016-May-20 16:33N 40°50' E 014°16'1111.2
2016-May-20 15:33N 40°39' E 014°19'7 6.6
2016-May-20 14:33N 40°33' E 014°14'17 8.4
2016-May-20 12:33N 40°50' E 014°16'1716.6
2016-May-20 11:33N 40°33' E 014°14'3 2.9
2016-May-20 10:33N 40°36' E 014°16'1414.5
2016-May-20 09:33N 40°50' E 014°15'0 0.0
2016-May-20 08:33N 40°50' E 014°15'1716.8
2016-May-20 07:33N 40°33' E 014°14'10 5.1
2016-May-20 05:33N 40°42' E 014°22'4 0.1
2016-May-18 18:32N 40°38' E 014°23'0 0.0
2016-May-18 17:33N 40°38' E 014°23'1312.9
2016-May-18 16:33N 40°50' E 014°17'7 7.4
2016-May-18 15:33N 40°42' E 014°17'9 9.2
2016-May-18 14:33N 40°33' E 014°14'17 8.1
2016-May-18 12:28N 40°50' E 014°16'1718.4
2016-May-18 11:33N 40°33' E 014°14'0 0.0
2016-May-18 10:33N 40°33' E 014°14'17 8.1
2016-May-18 08:29N 40°50' E 014°16'1718.0
2016-May-18 07:33N 40°33' E 014°14'1711.8
2016-May-18 06:08N 40°50' E 014°15'915.9
2016-May-18 05:33N 40°42' E 014°21'4 4.4
2016-May-18 04:33N 40°38' E 014°23'0 0.0
2016-May-18 03:33N 40°38' E 014°23'0 0.0
2016-May-18 02:33N 40°38' E 014°23'0 0.0
2016-May-18 01:33N 40°38' E 014°23'0 0.0
2016-May-18 00:33N 40°38' E 014°23'0 0.0
2016-May-17 23:33N 40°38' E 014°23'0 0.0
2016-May-17 22:33N 40°38' E 014°23'0 0.0
2016-May-17 21:32N 40°38' E 014°23'0 0.0
2016-May-17 20:33N 40°38' E 014°23'0 0.0
2016-May-17 19:33N 40°38' E 014°23'0 0.0
2016-May-17 18:31N 40°38' E 014°23'0 0.0
2016-May-17 17:33N 40°38' E 014°23'1312.8
2016-May-17 16:33N 40°50' E 014°17'1 1.1
2016-May-17 15:32N 40°50' E 014°15'1717.2
2016-May-17 14:33N 40°33' E 014°14'0 0.0
2016-May-17 13:33N 40°33' E 014°14'0 0.0
2016-May-17 12:33N 40°33' E 014°14'4 3.7
2016-May-17 11:33N 40°36' E 014°17'1411.3
2016-May-17 10:21N 40°50' E 014°16'1721.1
2016-May-17 09:33N 40°33' E 014°14'0 0.0
2016-May-17 08:33N 40°33' E 014°14'0 0.0
2016-May-17 07:33N 40°33' E 014°14'  

Dump ship's entire track history